LEST/SCQ METAR and TAF weather

Enter ICAO airport designator
Station Type Date Time Source
LEST METAR 2021/09/16 10:00 UTC NOAA

LEST 161000Z 06008KT 020V100 9999 SCT015 18/14 Q1022 NOSIG


Station Type Date Time Source
LEST Decoded METAR 2021/09/16 10:00 UTC NOAA

Santiago / Labacolla, Spain (LEST) 42-54N 008-26W 367M
Sep 16, 2021 - 06:00 AM EDT / 2021.09.16 1000 UTC
Wind: from the ENE (060 degrees) at 9 MPH (8 KT) (direction variable):0
Visibility: greater than 7 mile(s):0
Sky conditions: partly cloudy
Temperature: 64 F (18 C)
Dew Point: 57 F (14 C)
Relative Humidity: 77%
Pressure (altimeter): 30.18 in. Hg (1022 hPa)
ob: LEST 161000Z 06008KT 020V100 9999 SCT015 18/14 Q1022 NOSIG
cycle: 10

Station Type Date Time Source
LEST TAF 2021/09/16 06:27 UTC NOAA

TAF LEST 160500Z 1606/1706 02007KT 9999 FEW030 TX23/1614Z TN11/1705Z PROB40
TEMPO 1606/1608 3000 BR BCFG BKN005 BKN010
TEMPO 1621/1706 3000 BR BCFG BKN010 PROB40
TEMPO 1701/1706 0350 FG VV001

Example: see airport list